sensor_id;sensor_type;location;lat;lon;timestamp;pressure;altitude;pressure_sealevel;temperature
27986;BMP280;15453;53.692;10.168;2023-05-09T00:01:33;101792.13;;;18.75
27986;BMP280;15453;53.692;10.168;2023-05-09T00:03:59;101802.13;;;18.71
27986;BMP280;15453;53.692;10.168;2023-05-09T00:06:25;101789.09;;;18.67
27986;BMP280;15453;53.692;10.168;2023-05-09T00:08:54;101789.09;;;18.67
27986;BMP280;15453;53.692;10.168;2023-05-09T00:11:20;101794.63;;;18.62
27986;BMP280;15453;53.692;10.168;2023-05-09T00:13:46;101793.22;;;18.59
27986;BMP280;15453;53.692;10.168;2023-05-09T00:16:12;101801.28;;;18.56
27986;BMP280;15453;53.692;10.168;2023-05-09T00:18:37;101795.16;;;18.54
27986;BMP280;15453;53.692;10.168;2023-05-09T00:21:06;101796.56;;;18.51
27986;BMP280;15453;53.692;10.168;2023-05-09T00:23:31;101796.56;;;18.51
27986;BMP280;15453;53.692;10.168;2023-05-09T00:25:57;101800.44;;;18.45
27986;BMP280;15453;53.692;10.168;2023-05-09T00:28:23;101805.41;;;18.43
27986;BMP280;15453;53.692;10.168;2023-05-09T00:30:48;101805.41;;;18.43
27986;BMP280;15453;53.692;10.168;2023-05-09T00:33:13;101809.31;;;18.37
27986;BMP280;15453;53.692;10.168;2023-05-09T00:35:39;101792.63;;;18.32
27986;BMP280;15453;53.692;10.168;2023-05-09T00:38:04;101792.06;;;18.25
27986;BMP280;15453;53.692;10.168;2023-05-09T00:40:29;101792.06;;;18.25
27986;BMP280;15453;53.692;10.168;2023-05-09T00:42:55;101782.88;;;18.15
27986;BMP280;15453;53.692;10.168;2023-05-09T00:45:23;101783.69;;;18.10
27986;BMP280;15453;53.692;10.168;2023-05-09T00:47:48;101780.66;;;18.07
27986;BMP280;15453;53.692;10.168;2023-05-09T00:50:13;101762.88;;;18.03
27986;BMP280;15453;53.692;10.168;2023-05-09T00:52:39;101770.09;;;17.99
27986;BMP280;15453;53.692;10.168;2023-05-09T00:55:05;101770.63;;;17.96
27986;BMP280;15453;53.692;10.168;2023-05-09T00:57:32;101769.53;;;17.92
27986;BMP280;15453;53.692;10.168;2023-05-09T00:59:59;101753.19;;;17.90
27986;BMP280;15453;53.692;10.168;2023-05-09T01:02:24;101742.91;;;17.86
27986;BMP280;15453;53.692;10.168;2023-05-09T01:04:49;101742.91;;;17.86
27986;BMP280;15453;53.692;10.168;2023-05-09T01:07:34;101740.13;;;17.81
27986;BMP280;15453;53.692;10.168;2023-05-09T01:10:10;101735.38;;;17.76
27986;BMP280;15453;53.692;10.168;2023-05-09T01:12:46;101734.00;;;17.74
27986;BMP280;15453;53.692;10.168;2023-05-09T01:17:59;101731.75;;;17.66
27986;BMP280;15453;53.692;10.168;2023-05-09T01:20:43;101731.75;;;17.66
27986;BMP280;15453;53.692;10.168;2023-05-09T01:23:52;101719.25;;;17.58
27986;BMP280;15453;53.692;10.168;2023-05-09T01:26:42;101720.38;;;17.52
27986;BMP280;15453;53.692;10.168;2023-05-09T01:31:51;101719.78;;;17.50
27986;BMP280;15453;53.692;10.168;2023-05-09T01:34:18;101723.94;;;17.48
27986;BMP280;15453;53.692;10.168;2023-05-09T01:36:49;101722.53;;;17.45
27986;BMP280;15453;53.692;10.168;2023-05-09T01:39:16;101716.41;;;17.43
27986;BMP280;15453;53.692;10.168;2023-05-09T01:41:42;101720.56;;;17.41
27986;BMP280;15453;53.692;10.168;2023-05-09T01:44:10;101720.56;;;17.41
27986;BMP280;15453;53.692;10.168;2023-05-09T01:46:36;101714.13;;;17.35
27986;BMP280;15453;53.692;10.168;2023-05-09T01:49:02;101719.97;;;17.34
27986;BMP280;15453;53.692;10.168;2023-05-09T01:51:29;101709.44;;;17.31
27986;BMP280;15453;53.692;10.168;2023-05-09T01:53:56;101709.44;;;17.31
27986;BMP280;15453;53.692;10.168;2023-05-09T01:56:23;101709.97;;;17.27
27986;BMP280;15453;53.692;10.168;2023-05-09T01:58:50;101706.91;;;17.24
27986;BMP280;15453;53.692;10.168;2023-05-09T02:01:17;101706.91;;;17.24
27986;BMP280;15453;53.692;10.168;2023-05-09T02:03:44;101699.66;;;17.18
27986;BMP280;15453;53.692;10.168;2023-05-09T02:06:10;101709.06;;;17.12
27986;BMP280;15453;53.692;10.168;2023-05-09T02:08:35;101705.44;;;17.06
27986;BMP280;15453;53.692;10.168;2023-05-09T02:11:01;101702.06;;;16.99
27986;BMP280;15453;53.692;10.168;2023-05-09T02:13:26;101702.88;;;16.95
27986;BMP280;15453;53.692;10.168;2023-05-09T02:15:52;101703.94;;;16.89
27986;BMP280;15453;53.692;10.168;2023-05-09T02:18:18;101696.72;;;16.83
27986;BMP280;15453;53.692;10.168;2023-05-09T02:20:43;101696.72;;;16.83
27986;BMP280;15453;53.692;10.168;2023-05-09T02:23:09;101696.66;;;16.73
27986;BMP280;15453;53.692;10.168;2023-05-09T02:25:34;101695.25;;;16.70
27986;BMP280;15453;53.692;10.168;2023-05-09T02:28:00;101695.25;;;16.70
27986;BMP280;15453;53.692;10.168;2023-05-09T02:30:32;101693.00;;;16.62
27986;BMP280;15453;53.692;10.168;2023-05-09T02:33:00;101690.75;;;16.59
27986;BMP280;15453;53.692;10.168;2023-05-09T02:35:27;101686.00;;;16.55
27986;BMP280;15453;53.692;10.168;2023-05-09T02:37:53;101686.00;;;16.55
27986;BMP280;15453;53.692;10.168;2023-05-09T02:40:19;101686.25;;;16.48
27986;BMP280;15453;53.692;10.168;2023-05-09T02:42:46;101684.56;;;16.42
27986;BMP280;15453;53.692;10.168;2023-05-09T02:45:11;101685.03;;;16.39
27986;BMP280;15453;53.692;10.168;2023-05-09T02:47:37;101685.03;;;16.39
27986;BMP280;15453;53.692;10.168;2023-05-09T02:50:03;101678.34;;;16.30
27986;BMP280;15453;53.692;10.168;2023-05-09T02:52:28;101675.00;;;16.28
27986;BMP280;15453;53.692;10.168;2023-05-09T02:54:53;101673.56;;;16.21
27986;BMP280;15453;53.692;10.168;2023-05-09T02:57:19;101673.56;;;16.21
27986;BMP280;15453;53.692;10.168;2023-05-09T02:59:44;101665.50;;;16.14
27986;BMP280;15453;53.692;10.168;2023-05-09T03:02:09;101664.59;;;16.09
27986;BMP280;15453;53.692;10.168;2023-05-09T03:04:35;101664.59;;;16.09
27986;BMP280;15453;53.692;10.168;2023-05-09T03:07:00;101662.91;;;16.03
27986;BMP280;15453;53.692;10.168;2023-05-09T03:09:26;101667.56;;;15.97
27986;BMP280;15453;53.692;10.168;2023-05-09T03:11:51;101665.88;;;15.96
27986;BMP280;15453;53.692;10.168;2023-05-09T03:14:16;101661.19;;;15.97
27986;BMP280;15453;53.692;10.168;2023-05-09T03:16:42;101659.78;;;15.94
27986;BMP280;15453;53.692;10.168;2023-05-09T03:19:07;101659.78;;;15.94
27986;BMP280;15453;53.692;10.168;2023-05-09T03:21:32;101650.59;;;15.89
27986;BMP280;15453;53.692;10.168;2023-05-09T03:23:58;101661.34;;;15.85
27986;BMP280;15453;53.692;10.168;2023-05-09T03:26:23;101661.34;;;15.85
27986;BMP280;15453;53.692;10.168;2023-05-09T03:28:50;101647.50;;;15.80
27986;BMP280;15453;53.692;10.168;2023-05-09T03:31:15;101652.69;;;15.77
27986;BMP280;15453;53.692;10.168;2023-05-09T03:33:41;101652.69;;;15.77
27986;BMP280;15453;53.692;10.168;2023-05-09T03:36:06;101652.66;;;15.72
27986;BMP280;15453;53.692;10.168;2023-05-09T03:38:31;101645.72;;;15.69
27986;BMP280;15453;53.692;10.168;2023-05-09T03:40:57;101644.56;;;15.65
27986;BMP280;15453;53.692;10.168;2023-05-09T03:43:22;101639.31;;;15.64
27986;BMP280;15453;53.692;10.168;2023-05-09T03:45:47;101639.31;;;15.64
27986;BMP280;15453;53.692;10.168;2023-05-09T03:48:12;101639.25;;;15.59
27986;BMP280;15453;53.692;10.168;2023-05-09T03:50:38;101635.94;;;15.57
27986;BMP280;15453;53.692;10.168;2023-05-09T03:53:03;101644.22;;;15.57
27986;BMP280;15453;53.692;10.168;2023-05-09T03:55:29;101644.22;;;15.57
27986;BMP280;15453;53.692;10.168;2023-05-09T03:57:54;101638.38;;;15.53
27986;BMP280;15453;53.692;10.168;2023-05-09T04:00:20;101637.56;;;15.53
27986;BMP280;15453;53.692;10.168;2023-05-09T04:02:48;101633.94;;;15.52
27986;BMP280;15453;53.692;10.168;2023-05-09T04:05:14;101630.63;;;15.50
27986;BMP280;15453;53.692;10.168;2023-05-09T04:07:40;101630.03;;;15.48
27986;BMP280;15453;53.692;10.168;2023-05-09T04:10:06;101619.84;;;15.49
27986;BMP280;15453;53.692;10.168;2023-05-09T04:12:32;101626.47;;;15.48
27986;BMP280;15453;53.692;10.168;2023-05-09T04:14:57;101629.47;;;15.46
27986;BMP280;15453;53.692;10.168;2023-05-09T04:17:22;101631.41;;;15.46
27986;BMP280;15453;53.692;10.168;2023-05-09T04:19:47;101622.56;;;15.44
27986;BMP280;15453;53.692;10.168;2023-05-09T04:22:13;101619.22;;;15.42
27986;BMP280;15453;53.692;10.168;2023-05-09T04:24:38;101627.75;;;15.40
27986;BMP280;15453;53.692;10.168;2023-05-09T04:27:03;101627.19;;;15.38
27986;BMP280;15453;53.692;10.168;2023-05-09T04:29:28;101621.91;;;15.37
27986;BMP280;15453;53.692;10.168;2023-05-09T04:31:54;101621.91;;;15.37
27986;BMP280;15453;53.692;10.168;2023-05-09T04:34:20;101612.22;;;15.34
27986;BMP280;15453;53.692;10.168;2023-05-09T04:36:45;101612.22;;;15.34
27986;BMP280;15453;53.692;10.168;2023-05-09T04:39:10;101613.81;;;15.30
27986;BMP280;15453;53.692;10.168;2023-05-09T04:41:37;101634.31;;;15.34
27986;BMP280;15453;53.692;10.168;2023-05-09T04:44:02;101623.28;;;15.34
27986;BMP280;15453;53.692;10.168;2023-05-09T04:46:27;101617.97;;;15.33
27986;BMP280;15453;53.692;10.168;2023-05-09T04:48:52;101617.97;;;15.33
27986;BMP280;15453;53.692;10.168;2023-05-09T04:51:18;101606.34;;;15.31
27986;BMP280;15453;53.692;10.168;2023-05-09T04:53:43;101606.34;;;15.31
27986;BMP280;15453;53.692;10.168;2023-05-09T04:56:09;101611.31;;;15.29
27986;BMP280;15453;53.692;10.168;2023-05-09T04:58:34;101611.31;;;15.29
27986;BMP280;15453;53.692;10.168;2023-05-09T05:01:03;101608.81;;;15.27
27986;BMP280;15453;53.692;10.168;2023-05-09T05:03:29;101608.81;;;15.27
27986;BMP280;15453;53.692;10.168;2023-05-09T05:05:54;101606.88;;;15.28
27986;BMP280;15453;53.692;10.168;2023-05-09T05:08:20;101606.88;;;15.28
27986;BMP280;15453;53.692;10.168;2023-05-09T05:10:45;101594.44;;;15.25
27986;BMP280;15453;53.692;10.168;2023-05-09T05:13:11;101594.16;;;15.27
27986;BMP280;15453;53.692;10.168;2023-05-09T05:15:36;101585.63;;;15.28
27986;BMP280;15453;53.692;10.168;2023-05-09T05:18:02;101586.47;;;15.29
27986;BMP280;15453;53.692;10.168;2023-05-09T05:20:27;101585.63;;;15.28
27986;BMP280;15453;53.692;10.168;2023-05-09T05:22:52;101578.50;;;15.32
27986;BMP280;15453;53.692;10.168;2023-05-09T05:25:19;101571.66;;;15.35
27986;BMP280;15453;53.692;10.168;2023-05-09T05:27:45;101571.66;;;15.35
27986;BMP280;15453;53.692;10.168;2023-05-09T05:30:10;101575.56;;;15.39
27986;BMP280;15453;53.692;10.168;2023-05-09T05:32:36;101565.09;;;15.41
27986;BMP280;15453;53.692;10.168;2023-05-09T05:35:01;101560.97;;;15.43
27986;BMP280;15453;53.692;10.168;2023-05-09T05:37:28;101560.47;;;15.46
27986;BMP280;15453;53.692;10.168;2023-05-09T05:39:54;101559.91;;;15.49
27986;BMP280;15453;53.692;10.168;2023-05-09T05:42:19;101558.56;;;15.52
27986;BMP280;15453;53.692;10.168;2023-05-09T05:44:44;101558.56;;;15.52
27986;BMP280;15453;53.692;10.168;2023-05-09T05:47:09;101549.78;;;15.60
27986;BMP280;15453;53.692;10.168;2023-05-09T05:49:35;101552.03;;;15.63
27986;BMP280;15453;53.692;10.168;2023-05-09T05:52:00;101547.91;;;15.65
27986;BMP280;15453;53.692;10.168;2023-05-09T05:54:25;101546.28;;;15.69
27986;BMP280;15453;53.692;10.168;2023-05-09T05:56:50;101547.44;;;15.73
27986;BMP280;15453;53.692;10.168;2023-05-09T05:59:16;101554.34;;;15.76
27986;BMP280;15453;53.692;10.168;2023-05-09T06:01:41;101542.53;;;15.80
27986;BMP280;15453;53.692;10.168;2023-05-09T06:04:06;101542.53;;;15.80
27986;BMP280;15453;53.692;10.168;2023-05-09T06:06:31;101534.88;;;15.87
27986;BMP280;15453;53.692;10.168;2023-05-09T06:08:57;101546.19;;;15.91
27986;BMP280;15453;53.692;10.168;2023-05-09T06:11:22;101533.53;;;15.95
27986;BMP280;15453;53.692;10.168;2023-05-09T06:13:48;101533.53;;;15.95
27986;BMP280;15453;53.692;10.168;2023-05-09T06:16:13;101544.59;;;16.00
27986;BMP280;15453;53.692;10.168;2023-05-09T06:18:38;101544.91;;;16.03
27986;BMP280;15453;53.692;10.168;2023-05-09T06:21:05;101544.91;;;16.03
27986;BMP280;15453;53.692;10.168;2023-05-09T06:23:30;101535.28;;;16.11
27986;BMP280;15453;53.692;10.168;2023-05-09T06:25:55;101528.44;;;16.18
27986;BMP280;15453;53.692;10.168;2023-05-09T06:28:21;101528.19;;;16.25
27986;BMP280;15453;53.692;10.168;2023-05-09T06:30:46;101528.19;;;16.25
27986;BMP280;15453;53.692;10.168;2023-05-09T06:33:11;101527.66;;;16.28
27986;BMP280;15453;53.692;10.168;2023-05-09T06:35:36;101522.16;;;16.33
27986;BMP280;15453;53.692;10.168;2023-05-09T06:38:02;101518.59;;;16.37
27986;BMP280;15453;53.692;10.168;2023-05-09T06:40:27;101523.34;;;16.47
27986;BMP280;15453;53.692;10.168;2023-05-09T06:42:52;101518.94;;;16.51
27986;BMP280;15453;53.692;10.168;2023-05-09T06:45:17;101509.56;;;16.52
27986;BMP280;15453;53.692;10.168;2023-05-09T06:47:43;101505.97;;;16.56
27986;BMP280;15453;53.692;10.168;2023-05-09T06:50:08;101503.22;;;16.61
27986;BMP280;15453;53.692;10.168;2023-05-09T06:52:33;101500.47;;;16.66
27986;BMP280;15453;53.692;10.168;2023-05-09T06:54:58;101507.97;;;16.71
27986;BMP280;15453;53.692;10.168;2023-05-09T06:57:24;101507.97;;;16.71
27986;BMP280;15453;53.692;10.168;2023-05-09T06:59:49;101488.94;;;16.79
27986;BMP280;15453;53.692;10.168;2023-05-09T07:02:15;101486.16;;;16.84
27986;BMP280;15453;53.692;10.168;2023-05-09T07:04:40;101486.72;;;16.91
27986;BMP280;15453;53.692;10.168;2023-05-09T07:07:05;101484.25;;;16.95
27986;BMP280;15453;53.692;10.168;2023-05-09T07:09:31;101479.56;;;17.00
27986;BMP280;15453;53.692;10.168;2023-05-09T07:11:58;101472.38;;;17.04
27986;BMP280;15453;53.692;10.168;2023-05-09T07:14:24;101464.88;;;17.10
27986;BMP280;15453;53.692;10.168;2023-05-09T07:16:49;101464.94;;;17.15
27986;BMP280;15453;53.692;10.168;2023-05-09T07:19:14;101464.94;;;17.15
27986;BMP280;15453;53.692;10.168;2023-05-09T07:21:40;101447.78;;;17.23
27986;BMP280;15453;53.692;10.168;2023-05-09T07:24:05;101447.19;;;17.31
27986;BMP280;15453;53.692;10.168;2023-05-09T07:26:31;101448.88;;;17.37
27986;BMP280;15453;53.692;10.168;2023-05-09T07:28:56;101441.16;;;17.44
27986;BMP280;15453;53.692;10.168;2023-05-09T07:31:21;101449.72;;;17.53
27986;BMP280;15453;53.692;10.168;2023-05-09T07:33:46;101449.16;;;17.61
27986;BMP280;15453;53.692;10.168;2023-05-09T07:36:12;101451.09;;;17.65
27986;BMP280;15453;53.692;10.168;2023-05-09T07:38:38;101451.09;;;17.65
27986;BMP280;15453;53.692;10.168;2023-05-09T07:41:04;101453.59;;;17.72
27986;BMP280;15453;53.692;10.168;2023-05-09T07:43:30;101453.59;;;17.72
27986;BMP280;15453;53.692;10.168;2023-05-09T07:45:55;101432.25;;;17.82
27986;BMP280;15453;53.692;10.168;2023-05-09T07:48:20;101438.03;;;17.86
27986;BMP280;15453;53.692;10.168;2023-05-09T07:50:46;101428.91;;;17.90
27986;BMP280;15453;53.692;10.168;2023-05-09T07:53:11;101428.91;;;17.90
27986;BMP280;15453;53.692;10.168;2023-05-09T07:55:36;101420.25;;;18.02
27986;BMP280;15453;53.692;10.168;2023-05-09T07:58:02;101416.06;;;18.09
27986;BMP280;15453;53.692;10.168;2023-05-09T08:00:27;101411.06;;;18.16
27986;BMP280;15453;53.692;10.168;2023-05-09T08:02:52;101411.06;;;18.16
27986;BMP280;15453;53.692;10.168;2023-05-09T08:05:18;101395.50;;;18.20
27986;BMP280;15453;53.692;10.168;2023-05-09T08:07:44;101389.38;;;18.28
27986;BMP280;15453;53.692;10.168;2023-05-09T08:10:09;101391.03;;;18.34
27986;BMP280;15453;53.692;10.168;2023-05-09T08:12:35;101373.81;;;18.42
27986;BMP280;15453;53.692;10.168;2023-05-09T08:15:00;101377.63;;;18.56
27986;BMP280;15453;53.692;10.168;2023-05-09T08:17:26;101377.63;;;18.56
27986;BMP280;15453;53.692;10.168;2023-05-09T08:19:51;101374.25;;;18.59
27986;BMP280;15453;53.692;10.168;2023-05-09T08:22:17;101382.53;;;18.64
27986;BMP280;15453;53.692;10.168;2023-05-09T08:24:43;101367.72;;;18.84
27986;BMP280;15453;53.692;10.168;2023-05-09T08:27:09;101368.75;;;18.93
27986;BMP280;15453;53.692;10.168;2023-05-09T08:29:37;101368.13;;;19.01
27986;BMP280;15453;53.692;10.168;2023-05-09T08:32:02;101368.63;;;19.08
27986;BMP280;15453;53.692;10.168;2023-05-09T08:34:27;101368.63;;;19.08
27986;BMP280;15453;53.692;10.168;2023-05-09T08:36:55;101361.91;;;19.14
27986;BMP280;15453;53.692;10.168;2023-05-09T08:39:20;101355.38;;;19.33
27986;BMP280;15453;53.692;10.168;2023-05-09T08:41:46;101351.97;;;19.41
27986;BMP280;15453;53.692;10.168;2023-05-09T08:44:12;101355.25;;;19.48
27986;BMP280;15453;53.692;10.168;2023-05-09T08:46:38;101355.25;;;19.48
27986;BMP280;15453;53.692;10.168;2023-05-09T08:49:06;101335.72;;;19.53
27986;BMP280;15453;53.692;10.168;2023-05-09T08:51:33;101335.50;;;19.73
27986;BMP280;15453;53.692;10.168;2023-05-09T08:53:58;101332.88;;;19.82
27986;BMP280;15453;53.692;10.168;2023-05-09T08:56:24;101341.72;;;19.89
27986;BMP280;15453;53.692;10.168;2023-05-09T08:58:52;101334.59;;;20.01
27986;BMP280;15453;53.692;10.168;2023-05-09T09:01:18;101334.81;;;20.10
27986;BMP280;15453;53.692;10.168;2023-05-09T09:03:45;101335.28;;;20.17
27986;BMP280;15453;53.692;10.168;2023-05-09T09:06:14;101335.28;;;20.17
27986;BMP280;15453;53.692;10.168;2023-05-09T09:08:41;101324.88;;;20.22
27986;BMP280;15453;53.692;10.168;2023-05-09T09:11:09;101327.84;;;20.31
27986;BMP280;15453;53.692;10.168;2023-05-09T09:13:36;101324.09;;;20.40
27986;BMP280;15453;53.692;10.168;2023-05-09T09:16:03;101319.63;;;20.58
27986;BMP280;15453;53.692;10.168;2023-05-09T09:18:29;101319.63;;;20.58
27986;BMP280;15453;53.692;10.168;2023-05-09T09:20:58;101320.84;;;20.70
27986;BMP280;15453;53.692;10.168;2023-05-09T09:23:27;101304.59;;;20.77
27986;BMP280;15453;53.692;10.168;2023-05-09T09:25:58;101304.59;;;20.77
27986;BMP280;15453;53.692;10.168;2023-05-09T09:28:23;101306.22;;;20.97
27986;BMP280;15453;53.692;10.168;2023-05-09T09:30:48;101301.41;;;21.02
27986;BMP280;15453;53.692;10.168;2023-05-09T09:33:21;101301.41;;;21.02
27986;BMP280;15453;53.692;10.168;2023-05-09T09:35:48;101304.84;;;21.26
27986;BMP280;15453;53.692;10.168;2023-05-09T09:38:14;101304.84;;;21.26
27986;BMP280;15453;53.692;10.168;2023-05-09T09:40:39;101309.50;;;21.31
27986;BMP280;15453;53.692;10.168;2023-05-09T09:43:08;101305.00;;;21.48
27986;BMP280;15453;53.692;10.168;2023-05-09T09:45:33;101297.88;;;21.56
27986;BMP280;15453;53.692;10.168;2023-05-09T09:48:04;101287.78;;;21.60
27986;BMP280;15453;53.692;10.168;2023-05-09T09:50:30;101291.78;;;21.67
27986;BMP280;15453;53.692;10.168;2023-05-09T09:52:55;101278.91;;;21.71
27986;BMP280;15453;53.692;10.168;2023-05-09T09:55:22;101278.91;;;21.71
27986;BMP280;15453;53.692;10.168;2023-05-09T09:57:48;101275.50;;;21.74
27986;BMP280;15453;53.692;10.168;2023-05-09T10:00:15;101264.06;;;21.89
27986;BMP280;15453;53.692;10.168;2023-05-09T10:02:52;101264.06;;;21.89
27986;BMP280;15453;53.692;10.168;2023-05-09T10:05:37;101267.00;;;22.07
27986;BMP280;15453;53.692;10.168;2023-05-09T10:08:04;101261.19;;;22.17
27986;BMP280;15453;53.692;10.168;2023-05-09T10:10:35;101266.34;;;22.23
27986;BMP280;15453;53.692;10.168;2023-05-09T10:13:04;101255.28;;;22.32
27986;BMP280;15453;53.692;10.168;2023-05-09T10:15:31;101258.97;;;22.41
27986;BMP280;15453;53.692;10.168;2023-05-09T10:17:58;101258.97;;;22.41
27986;BMP280;15453;53.692;10.168;2023-05-09T10:20:26;101244.53;;;22.61
27986;BMP280;15453;53.692;10.168;2023-05-09T10:23:02;101257.41;;;22.70
27986;BMP280;15453;53.692;10.168;2023-05-09T10:25:38;101257.41;;;22.70
27986;BMP280;15453;53.692;10.168;2023-05-09T10:28:10;101238.25;;;22.77
27986;BMP280;15453;53.692;10.168;2023-05-09T10:33:33;101234.47;;;23.04
27986;BMP280;15453;53.692;10.168;2023-05-09T10:36:01;101231.72;;;23.12
27986;BMP280;15453;53.692;10.168;2023-05-09T10:38:27;101214.50;;;23.19
27986;BMP280;15453;53.692;10.168;2023-05-09T10:40:53;101220.47;;;23.26
27986;BMP280;15453;53.692;10.168;2023-05-09T10:43:19;101215.56;;;23.31
27986;BMP280;15453;53.692;10.168;2023-05-09T10:45:45;101205.88;;;23.37
27986;BMP280;15453;53.692;10.168;2023-05-09T10:48:12;101196.22;;;23.43
27986;BMP280;15453;53.692;10.168;2023-05-09T10:50:37;101186.84;;;23.48
27986;BMP280;15453;53.692;10.168;2023-05-09T10:58:27;101182.59;;;23.59
27986;BMP280;15453;53.692;10.168;2023-05-09T11:00:59;101176.06;;;23.80
27986;BMP280;15453;53.692;10.168;2023-05-09T11:03:26;101171.00;;;23.91
27986;BMP280;15453;53.692;10.168;2023-05-09T11:05:53;101162.63;;;23.99
27986;BMP280;15453;53.692;10.168;2023-05-09T11:08:29;101158.66;;;24.09
27986;BMP280;15453;53.692;10.168;2023-05-09T11:10:56;101151.41;;;24.16
27986;BMP280;15453;53.692;10.168;2023-05-09T11:13:24;101147.00;;;24.24
27986;BMP280;15453;53.692;10.168;2023-05-09T11:18:27;101151.25;;;24.30
27986;BMP280;15453;53.692;10.168;2023-05-09T11:20:55;101133.63;;;24.38
27986;BMP280;15453;53.692;10.168;2023-05-09T11:23:24;101123.06;;;24.43
27986;BMP280;15453;53.692;10.168;2023-05-09T11:25:50;101125.00;;;24.60
27986;BMP280;15453;53.692;10.168;2023-05-09T11:28:27;101125.00;;;24.60
27986;BMP280;15453;53.692;10.168;2023-05-09T11:30:52;101120.34;;;24.81
27986;BMP280;15453;53.692;10.168;2023-05-09T11:33:26;101120.34;;;24.81
27986;BMP280;15453;53.692;10.168;2023-05-09T11:38:59;101103.44;;;25.06
27986;BMP280;15453;53.692;10.168;2023-05-09T11:41:26;101093.97;;;25.19
27986;BMP280;15453;53.692;10.168;2023-05-09T11:43:51;101093.97;;;25.19
27986;BMP280;15453;53.692;10.168;2023-05-09T11:46:16;101089.47;;;25.35
27986;BMP280;15453;53.692;10.168;2023-05-09T11:48:42;101078.22;;;25.44
27986;BMP280;15453;53.692;10.168;2023-05-09T11:51:14;101076.16;;;25.53
27986;BMP280;15453;53.692;10.168;2023-05-09T11:53:43;101076.16;;;25.53
27986;BMP280;15453;53.692;10.168;2023-05-09T11:56:10;101065.81;;;25.65
27986;BMP280;15453;53.692;10.168;2023-05-09T11:58:37;101065.81;;;25.65
27986;BMP280;15453;53.692;10.168;2023-05-09T12:01:02;101064.03;;;25.81
27986;BMP280;15453;53.692;10.168;2023-05-09T12:03:28;101067.78;;;25.85
27986;BMP280;15453;53.692;10.168;2023-05-09T12:05:54;101054.38;;;25.91
27986;BMP280;15453;53.692;10.168;2023-05-09T12:08:21;101052.56;;;25.95
27986;BMP280;15453;53.692;10.168;2023-05-09T12:10:46;101053.84;;;25.97
27986;BMP280;15453;53.692;10.168;2023-05-09T12:13:12;101040.44;;;26.03
27986;BMP280;15453;53.692;10.168;2023-05-09T12:15:39;101039.38;;;26.07
27986;BMP280;15453;53.692;10.168;2023-05-09T12:18:06;101039.38;;;26.07
27986;BMP280;15453;53.692;10.168;2023-05-09T12:20:39;101036.72;;;26.11
27986;BMP280;15453;53.692;10.168;2023-05-09T12:23:05;101036.72;;;26.11
27986;BMP280;15453;53.692;10.168;2023-05-09T12:25:31;101031.50;;;26.21
27986;BMP280;15453;53.692;10.168;2023-05-09T12:27:56;101040.38;;;26.23
27986;BMP280;15453;53.692;10.168;2023-05-09T12:30:21;101040.03;;;26.25
27986;BMP280;15453;53.692;10.168;2023-05-09T12:32:47;101025.16;;;26.24
27986;BMP280;15453;53.692;10.168;2023-05-09T12:35:12;101030.91;;;26.28
27986;BMP280;15453;53.692;10.168;2023-05-09T12:37:38;101032.22;;;26.30
27986;BMP280;15453;53.692;10.168;2023-05-09T12:40:05;101028.47;;;26.26
27986;BMP280;15453;53.692;10.168;2023-05-09T12:42:34;101028.47;;;26.26
27986;BMP280;15453;53.692;10.168;2023-05-09T12:45:03;101024.13;;;26.29
27986;BMP280;15453;53.692;10.168;2023-05-09T12:47:29;101025.75;;;26.30
27986;BMP280;15453;53.692;10.168;2023-05-09T12:49:59;101030.09;;;26.27
27986;BMP280;15453;53.692;10.168;2023-05-09T12:52:32;101036.88;;;26.26
27986;BMP280;15453;53.692;10.168;2023-05-09T12:55:06;101033.00;;;26.31
27986;BMP280;15453;53.692;10.168;2023-05-09T12:57:32;101028.94;;;26.40
27986;BMP280;15453;53.692;10.168;2023-05-09T12:59:58;101035.16;;;26.46
27986;BMP280;15453;53.692;10.168;2023-05-09T13:02:26;101035.16;;;26.46
27986;BMP280;15453;53.692;10.168;2023-05-09T13:05:17;101030.84;;;26.48
27986;BMP280;15453;53.692;10.168;2023-05-09T13:07:48;101028.97;;;26.52
27986;BMP280;15453;53.692;10.168;2023-05-09T13:10:16;101024.28;;;26.56
27986;BMP280;15453;53.692;10.168;2023-05-09T13:12:48;101018.72;;;26.68
27986;BMP280;15453;53.692;10.168;2023-05-09T13:15:15;101014.16;;;26.76
27986;BMP280;15453;53.692;10.168;2023-05-09T13:17:40;101014.16;;;26.76
27986;BMP280;15453;53.692;10.168;2023-05-09T13:20:06;101010.75;;;26.83
27986;BMP280;15453;53.692;10.168;2023-05-09T13:22:33;101004.44;;;26.86
27986;BMP280;15453;53.692;10.168;2023-05-09T13:24:58;100999.31;;;26.88
27986;BMP280;15453;53.692;10.168;2023-05-09T13:27:23;100999.31;;;26.88
27986;BMP280;15453;53.692;10.168;2023-05-09T13:29:48;100985.25;;;26.88
27986;BMP280;15453;53.692;10.168;2023-05-09T13:32:14;100988.63;;;26.93
27986;BMP280;15453;53.692;10.168;2023-05-09T13:34:40;100998.81;;;26.98
27986;BMP280;15453;53.692;10.168;2023-05-09T13:37:05;100990.84;;;27.00
27986;BMP280;15453;53.692;10.168;2023-05-09T13:39:31;100983.72;;;27.02
27986;BMP280;15453;53.692;10.168;2023-05-09T13:41:56;100982.19;;;27.05
27986;BMP280;15453;53.692;10.168;2023-05-09T13:44:21;100981.94;;;27.10
27986;BMP280;15453;53.692;10.168;2023-05-09T13:46:48;100981.94;;;27.10
27986;BMP280;15453;53.692;10.168;2023-05-09T13:49:13;100968.06;;;27.17
27986;BMP280;15453;53.692;10.168;2023-05-09T13:51:38;100968.06;;;27.17
27986;BMP280;15453;53.692;10.168;2023-05-09T13:54:04;100970.09;;;27.16
27986;BMP280;15453;53.692;10.168;2023-05-09T13:56:33;100970.09;;;27.16
27986;BMP280;15453;53.692;10.168;2023-05-09T13:58:58;100964.91;;;27.18
27986;BMP280;15453;53.692;10.168;2023-05-09T14:01:24;100964.91;;;27.18